sensor_id;sensor_type;location;lat;lon;timestamp;pressure;altitude;pressure_sealevel;temperature;humidity
48216;BME280;34005;48.844;10.098;2023-05-03T00:00:43;97450.63;;;10.31;72.46
48216;BME280;34005;48.844;10.098;2023-05-03T00:03:10;97452.88;;;10.26;72.05
48216;BME280;34005;48.844;10.098;2023-05-03T00:05:39;97440.31;;;10.22;72.08
48216;BME280;34005;48.844;10.098;2023-05-03T00:08:06;97455.44;;;10.18;72.02
48216;BME280;34005;48.844;10.098;2023-05-03T00:10:35;97459.34;;;10.14;72.44
48216;BME280;34005;48.844;10.098;2023-05-03T00:13:03;97458.25;;;10.17;76.27
48216;BME280;34005;48.844;10.098;2023-05-03T00:15:30;97467.81;;;10.16;73.61
48216;BME280;34005;48.844;10.098;2023-05-03T00:17:58;97460.28;;;10.05;72.47
48216;BME280;34005;48.844;10.098;2023-05-03T00:20:26;97461.53;;;9.93;72.06
48216;BME280;34005;48.844;10.098;2023-05-03T00:22:54;97456.59;;;9.81;72.23
48216;BME280;34005;48.844;10.098;2023-05-03T00:25:21;97454.66;;;9.75;72.53
48216;BME280;34005;48.844;10.098;2023-05-03T00:27:50;97456.06;;;9.69;72.36
48216;BME280;34005;48.844;10.098;2023-05-03T00:30:18;97457.81;;;9.61;72.29
48216;BME280;34005;48.844;10.098;2023-05-03T00:32:46;97446.38;;;9.54;72.80
48216;BME280;34005;48.844;10.098;2023-05-03T00:35:14;97444.13;;;9.59;74.93
48216;BME280;34005;48.844;10.098;2023-05-03T00:37:41;97452.13;;;9.65;75.31
48216;BME280;34005;48.844;10.098;2023-05-03T00:40:09;97448.78;;;9.73;75.83
48216;BME280;34005;48.844;10.098;2023-05-03T00:42:37;97443.56;;;9.81;75.08
48216;BME280;34005;48.844;10.098;2023-05-03T00:45:06;97440.69;;;9.84;73.74
48216;BME280;34005;48.844;10.098;2023-05-03T00:47:35;97444.09;;;9.85;74.49
48216;BME280;34005;48.844;10.098;2023-05-03T00:50:04;97446.22;;;9.89;74.85
48216;BME280;34005;48.844;10.098;2023-05-03T00:52:32;97444.59;;;9.88;76.30
48216;BME280;34005;48.844;10.098;2023-05-03T00:55:00;97438.91;;;9.93;76.48
48216;BME280;34005;48.844;10.098;2023-05-03T00:57:28;97444.28;;;9.92;76.08
48216;BME280;34005;48.844;10.098;2023-05-03T00:59:56;97442.28;;;9.85;74.26
48216;BME280;34005;48.844;10.098;2023-05-03T01:02:26;97446.66;;;9.77;73.58
48216;BME280;34005;48.844;10.098;2023-05-03T01:04:54;97450.38;;;9.74;75.30
48216;BME280;34005;48.844;10.098;2023-05-03T01:07:30;97451.38;;;9.73;74.28
48216;BME280;34005;48.844;10.098;2023-05-03T01:10:07;97452.03;;;9.75;77.84
48216;BME280;34005;48.844;10.098;2023-05-03T01:12:43;97446.34;;;9.80;77.61
48216;BME280;34005;48.844;10.098;2023-05-03T01:15:16;97447.47;;;9.77;74.52
48216;BME280;34005;48.844;10.098;2023-05-03T01:17:50;97447.25;;;9.70;74.15
48216;BME280;34005;48.844;10.098;2023-05-03T01:20:22;97443.50;;;9.65;73.95
48216;BME280;34005;48.844;10.098;2023-05-03T01:22:59;97441.38;;;9.60;75.75
48216;BME280;34005;48.844;10.098;2023-05-03T01:25:29;97435.31;;;9.60;74.81
48216;BME280;34005;48.844;10.098;2023-05-03T01:27:56;97434.50;;;9.59;74.37
48216;BME280;34005;48.844;10.098;2023-05-03T01:30:26;97434.69;;;9.58;74.68
48216;BME280;34005;48.844;10.098;2023-05-03T01:33:02;97436.31;;;9.59;77.04
48216;BME280;34005;48.844;10.098;2023-05-03T01:35:36;97438.31;;;9.65;79.61
48216;BME280;34005;48.844;10.098;2023-05-03T01:38:06;97441.19;;;9.62;75.73
48216;BME280;34005;48.844;10.098;2023-05-03T01:40:39;97437.91;;;9.52;74.65
48216;BME280;34005;48.844;10.098;2023-05-03T01:43:10;97436.88;;;9.44;75.42
48216;BME280;34005;48.844;10.098;2023-05-03T01:45:39;97439.47;;;9.44;75.21
48216;BME280;34005;48.844;10.098;2023-05-03T01:48:10;97439.13;;;9.39;74.46
48216;BME280;34005;48.844;10.098;2023-05-03T01:50:38;97431.63;;;9.36;74.30
48216;BME280;34005;48.844;10.098;2023-05-03T01:53:05;97425.25;;;9.31;73.94
48216;BME280;34005;48.844;10.098;2023-05-03T01:55:33;97426.03;;;9.23;73.78
48216;BME280;34005;48.844;10.098;2023-05-03T01:58:02;97419.63;;;9.17;74.08
48216;BME280;34005;48.844;10.098;2023-05-03T02:00:30;97415.69;;;9.13;73.79
48216;BME280;34005;48.844;10.098;2023-05-03T02:02:57;97416.16;;;9.08;73.67
48216;BME280;34005;48.844;10.098;2023-05-03T02:05:25;97413.19;;;9.03;73.80
48216;BME280;34005;48.844;10.098;2023-05-03T02:07:52;97417.34;;;8.96;73.58
48216;BME280;34005;48.844;10.098;2023-05-03T02:10:20;97418.94;;;8.89;73.63
48216;BME280;34005;48.844;10.098;2023-05-03T02:12:47;97418.56;;;8.84;73.87
48216;BME280;34005;48.844;10.098;2023-05-03T02:15:16;97426.00;;;8.79;73.88
48216;BME280;34005;48.844;10.098;2023-05-03T02:17:45;97412.94;;;8.71;73.90
48216;BME280;34005;48.844;10.098;2023-05-03T02:20:15;97416.81;;;8.66;74.29
48216;BME280;34005;48.844;10.098;2023-05-03T02:22:42;97424.88;;;8.63;73.64
48216;BME280;34005;48.844;10.098;2023-05-03T02:25:10;97416.06;;;8.56;73.75
48216;BME280;34005;48.844;10.098;2023-05-03T02:27:37;97424.59;;;8.49;73.97
48216;BME280;34005;48.844;10.098;2023-05-03T02:30:06;97421.78;;;8.42;74.34
48216;BME280;34005;48.844;10.098;2023-05-03T02:32:36;97421.34;;;8.37;74.41
48216;BME280;34005;48.844;10.098;2023-05-03T02:35:04;97426.88;;;8.34;74.42
48216;BME280;34005;48.844;10.098;2023-05-03T02:37:32;97422.25;;;8.28;74.29
48216;BME280;34005;48.844;10.098;2023-05-03T02:39:59;97417.63;;;8.21;74.48
48216;BME280;34005;48.844;10.098;2023-05-03T02:42:27;97418.59;;;8.20;74.79
48216;BME280;34005;48.844;10.098;2023-05-03T02:44:55;97424.91;;;8.18;74.73
48216;BME280;34005;48.844;10.098;2023-05-03T02:47:22;97417.53;;;8.13;74.29
48216;BME280;34005;48.844;10.098;2023-05-03T02:49:51;97424.00;;;8.09;73.92
48216;BME280;34005;48.844;10.098;2023-05-03T02:52:19;97420.88;;;8.05;74.06
48216;BME280;34005;48.844;10.098;2023-05-03T02:54:46;97434.19;;;8.02;74.29
48216;BME280;34005;48.844;10.098;2023-05-03T02:57:14;97425.53;;;8.02;74.36
48216;BME280;34005;48.844;10.098;2023-05-03T02:59:42;97418.03;;;7.99;74.01
48216;BME280;34005;48.844;10.098;2023-05-03T03:02:10;97420.09;;;7.95;74.11
48216;BME280;34005;48.844;10.098;2023-05-03T03:04:38;97414.53;;;7.90;73.88
48216;BME280;34005;48.844;10.098;2023-05-03T03:07:07;97422.47;;;7.89;74.20
48216;BME280;34005;48.844;10.098;2023-05-03T03:09:34;97416.16;;;7.91;74.06
48216;BME280;34005;48.844;10.098;2023-05-03T03:12:02;97415.66;;;7.88;73.83
48216;BME280;34005;48.844;10.098;2023-05-03T03:14:30;97421.28;;;7.83;73.95
48216;BME280;34005;48.844;10.098;2023-05-03T03:16:57;97419.94;;;7.79;74.03
48216;BME280;34005;48.844;10.098;2023-05-03T03:19:25;97421.97;;;7.75;74.06
48216;BME280;34005;48.844;10.098;2023-05-03T03:21:52;97424.88;;;7.72;74.22
48216;BME280;34005;48.844;10.098;2023-05-03T03:24:21;97431.19;;;7.70;74.67
48216;BME280;34005;48.844;10.098;2023-05-03T03:26:49;97429.41;;;7.70;74.57
48216;BME280;34005;48.844;10.098;2023-05-03T03:29:16;97423.53;;;7.68;74.09
48216;BME280;34005;48.844;10.098;2023-05-03T03:31:44;97420.53;;;7.63;73.93
48216;BME280;34005;48.844;10.098;2023-05-03T03:34:12;97427.94;;;7.58;74.27
48216;BME280;34005;48.844;10.098;2023-05-03T03:36:39;97423.84;;;7.55;74.14
48216;BME280;34005;48.844;10.098;2023-05-03T03:39:07;97419.09;;;7.51;74.37
48216;BME280;34005;48.844;10.098;2023-05-03T03:41:36;97419.34;;;7.48;74.99
48216;BME280;34005;48.844;10.098;2023-05-03T03:44:04;97429.09;;;7.46;74.93
48216;BME280;34005;48.844;10.098;2023-05-03T03:46:32;97424.84;;;7.45;75.46
48216;BME280;34005;48.844;10.098;2023-05-03T03:48:59;97423.06;;;7.45;74.84
48216;BME280;34005;48.844;10.098;2023-05-03T03:51:27;97429.22;;;7.44;74.97
48216;BME280;34005;48.844;10.098;2023-05-03T03:53:54;97433.31;;;7.47;75.58
48216;BME280;34005;48.844;10.098;2023-05-03T03:56:22;97430.69;;;7.47;75.05
48216;BME280;34005;48.844;10.098;2023-05-03T03:58:52;97431.38;;;7.49;75.13
48216;BME280;34005;48.844;10.098;2023-05-03T04:01:19;97427.00;;;7.49;75.27
48216;BME280;34005;48.844;10.098;2023-05-03T04:03:47;97431.63;;;7.55;76.60
48216;BME280;34005;48.844;10.098;2023-05-03T04:06:14;97429.16;;;7.63;76.67
48216;BME280;34005;48.844;10.098;2023-05-03T04:08:42;97427.22;;;7.66;75.67
48216;BME280;34005;48.844;10.098;2023-05-03T04:11:10;97436.25;;;7.61;75.34
48216;BME280;34005;48.844;10.098;2023-05-03T04:13:38;97432.00;;;7.60;75.50
48216;BME280;34005;48.844;10.098;2023-05-03T04:16:07;97434.63;;;7.60;75.48
48216;BME280;34005;48.844;10.098;2023-05-03T04:18:35;97444.56;;;7.65;75.44
48216;BME280;34005;48.844;10.098;2023-05-03T04:21:03;97444.72;;;7.63;75.00
48216;BME280;34005;48.844;10.098;2023-05-03T04:23:30;97445.00;;;7.60;74.94
48216;BME280;34005;48.844;10.098;2023-05-03T04:25:58;97450.06;;;7.62;75.15
48216;BME280;34005;48.844;10.098;2023-05-03T04:28:28;97456.75;;;7.64;74.61
48216;BME280;34005;48.844;10.098;2023-05-03T04:30:56;97457.97;;;7.70;76.00
48216;BME280;34005;48.844;10.098;2023-05-03T04:33:26;97466.38;;;7.82;78.62
48216;BME280;34005;48.844;10.098;2023-05-03T04:35:55;97461.84;;;7.94;79.14
48216;BME280;34005;48.844;10.098;2023-05-03T04:38:23;97464.25;;;8.05;79.33
48216;BME280;34005;48.844;10.098;2023-05-03T04:40:50;97457.06;;;8.17;78.89
48216;BME280;34005;48.844;10.098;2023-05-03T04:43:18;97468.22;;;8.27;79.66
48216;BME280;34005;48.844;10.098;2023-05-03T04:45:46;97469.53;;;8.41;80.59
48216;BME280;34005;48.844;10.098;2023-05-03T04:48:13;97481.13;;;8.47;79.74
48216;BME280;34005;48.844;10.098;2023-05-03T04:50:44;97472.31;;;8.57;80.71
48216;BME280;34005;48.844;10.098;2023-05-03T04:53:12;97477.88;;;8.62;78.90
48216;BME280;34005;48.844;10.098;2023-05-03T04:55:40;97478.09;;;8.69;80.92
48216;BME280;34005;48.844;10.098;2023-05-03T04:58:07;97481.53;;;8.70;77.70
48216;BME280;34005;48.844;10.098;2023-05-03T05:00:35;97476.47;;;8.68;79.13
48216;BME280;34005;48.844;10.098;2023-05-03T05:03:02;97483.16;;;8.71;80.39
48216;BME280;34005;48.844;10.098;2023-05-03T05:05:31;97486.03;;;8.68;77.89
48216;BME280;34005;48.844;10.098;2023-05-03T05:08:00;97488.97;;;8.64;78.26
48216;BME280;34005;48.844;10.098;2023-05-03T05:10:30;97492.13;;;8.58;76.39
48216;BME280;34005;48.844;10.098;2023-05-03T05:12:58;97494.22;;;8.55;76.21
48216;BME280;34005;48.844;10.098;2023-05-03T05:15:26;97489.31;;;8.52;75.36
48216;BME280;34005;48.844;10.098;2023-05-03T05:17:53;97499.19;;;8.48;75.08
48216;BME280;34005;48.844;10.098;2023-05-03T05:20:21;97498.00;;;8.42;74.68
48216;BME280;34005;48.844;10.098;2023-05-03T05:22:49;97495.81;;;8.38;74.64
48216;BME280;34005;48.844;10.098;2023-05-03T05:25:18;97490.44;;;8.39;74.94
48216;BME280;34005;48.844;10.098;2023-05-03T05:27:46;97493.88;;;8.40;74.23
48216;BME280;34005;48.844;10.098;2023-05-03T05:30:14;97506.88;;;8.40;74.80
48216;BME280;34005;48.844;10.098;2023-05-03T05:32:41;97509.47;;;8.40;74.86
48216;BME280;34005;48.844;10.098;2023-05-03T05:35:09;97502.53;;;8.40;75.12
48216;BME280;34005;48.844;10.098;2023-05-03T05:37:37;97501.09;;;8.46;75.16
48216;BME280;34005;48.844;10.098;2023-05-03T05:40:05;97509.31;;;8.51;75.10
48216;BME280;34005;48.844;10.098;2023-05-03T05:42:35;97505.16;;;8.58;77.67
48216;BME280;34005;48.844;10.098;2023-05-03T05:45:03;97518.09;;;8.68;76.35
48216;BME280;34005;48.844;10.098;2023-05-03T05:47:33;97507.25;;;8.73;75.56
48216;BME280;34005;48.844;10.098;2023-05-03T05:50:00;97515.41;;;8.78;75.30
48216;BME280;34005;48.844;10.098;2023-05-03T05:52:37;97510.31;;;8.86;76.95
48216;BME280;34005;48.844;10.098;2023-05-03T05:55:12;97513.28;;;8.91;75.81
48216;BME280;34005;48.844;10.098;2023-05-03T05:57:43;97516.53;;;8.93;75.70
48216;BME280;34005;48.844;10.098;2023-05-03T06:00:12;97508.28;;;8.98;75.20
48216;BME280;34005;48.844;10.098;2023-05-03T06:02:41;97511.41;;;9.01;75.12
48216;BME280;34005;48.844;10.098;2023-05-03T06:05:10;97509.84;;;9.08;75.42
48216;BME280;34005;48.844;10.098;2023-05-03T06:07:38;97514.16;;;9.18;75.15
48216;BME280;34005;48.844;10.098;2023-05-03T06:10:06;97507.22;;;9.26;75.16
48216;BME280;34005;48.844;10.098;2023-05-03T06:12:34;97512.34;;;9.36;74.82
48216;BME280;34005;48.844;10.098;2023-05-03T06:15:05;97508.69;;;9.47;74.57
48216;BME280;34005;48.844;10.098;2023-05-03T06:17:33;97504.19;;;9.57;74.22
48216;BME280;34005;48.844;10.098;2023-05-03T06:20:01;97506.84;;;9.65;73.71
48216;BME280;34005;48.844;10.098;2023-05-03T06:22:30;97506.22;;;9.72;73.11
48216;BME280;34005;48.844;10.098;2023-05-03T06:24:57;97511.31;;;9.81;75.47
48216;BME280;34005;48.844;10.098;2023-05-03T06:27:25;97511.44;;;9.98;74.95
48216;BME280;34005;48.844;10.098;2023-05-03T06:29:53;97505.28;;;10.07;74.19
48216;BME280;34005;48.844;10.098;2023-05-03T06:32:23;97501.09;;;10.22;76.26
48216;BME280;34005;48.844;10.098;2023-05-03T06:34:52;97503.81;;;10.39;76.04
48216;BME280;34005;48.844;10.098;2023-05-03T06:37:21;97504.97;;;10.52;73.83
48216;BME280;34005;48.844;10.098;2023-05-03T06:39:49;97512.34;;;10.65;73.02
48216;BME280;34005;48.844;10.098;2023-05-03T06:42:16;97504.38;;;10.75;71.92
48216;BME280;34005;48.844;10.098;2023-05-03T06:44:44;97510.41;;;10.84;71.65
48216;BME280;34005;48.844;10.098;2023-05-03T06:47:13;97512.06;;;10.93;71.25
48216;BME280;34005;48.844;10.098;2023-05-03T06:49:42;97507.50;;;11.03;70.78
48216;BME280;34005;48.844;10.098;2023-05-03T06:52:10;97502.47;;;11.10;70.01
48216;BME280;34005;48.844;10.098;2023-05-03T06:54:43;97503.44;;;11.17;69.82
48216;BME280;34005;48.844;10.098;2023-05-03T06:57:11;97501.97;;;11.23;69.86
48216;BME280;34005;48.844;10.098;2023-05-03T06:59:39;97500.34;;;11.30;69.64
48216;BME280;34005;48.844;10.098;2023-05-03T07:02:06;97506.72;;;11.36;69.29
48216;BME280;34005;48.844;10.098;2023-05-03T07:04:34;97498.38;;;11.40;69.35
48216;BME280;34005;48.844;10.098;2023-05-03T07:07:04;97501.94;;;11.47;68.87
48216;BME280;34005;48.844;10.098;2023-05-03T07:09:32;97496.06;;;11.53;68.61
48216;BME280;34005;48.844;10.098;2023-05-03T07:12:09;97491.00;;;11.60;68.69
48216;BME280;34005;48.844;10.098;2023-05-03T07:14:37;97498.53;;;11.63;68.36
48216;BME280;34005;48.844;10.098;2023-05-03T07:17:04;97498.19;;;11.66;67.94
48216;BME280;34005;48.844;10.098;2023-05-03T07:19:32;97490.19;;;11.68;69.34
48216;BME280;34005;48.844;10.098;2023-05-03T07:22:00;97496.72;;;11.72;68.01
48216;BME280;34005;48.844;10.098;2023-05-03T07:24:29;97496.88;;;11.70;67.93
48216;BME280;34005;48.844;10.098;2023-05-03T07:26:57;97492.75;;;11.76;67.94
48216;BME280;34005;48.844;10.098;2023-05-03T07:29:25;97495.84;;;11.80;68.12
48216;BME280;34005;48.844;10.098;2023-05-03T07:31:53;97494.38;;;11.85;68.43
48216;BME280;34005;48.844;10.098;2023-05-03T07:34:21;97496.69;;;11.88;67.90
48216;BME280;34005;48.844;10.098;2023-05-03T07:36:48;97493.91;;;11.90;67.72
48216;BME280;34005;48.844;10.098;2023-05-03T07:39:17;97499.13;;;11.90;67.71
48216;BME280;34005;48.844;10.098;2023-05-03T07:41:46;97497.16;;;11.84;67.49
48216;BME280;34005;48.844;10.098;2023-05-03T07:44:13;97494.72;;;11.74;67.67
48216;BME280;34005;48.844;10.098;2023-05-03T07:46:41;97499.97;;;11.66;67.84
48216;BME280;34005;48.844;10.098;2023-05-03T07:49:08;97488.88;;;11.64;67.90
48216;BME280;34005;48.844;10.098;2023-05-03T07:51:37;97484.81;;;11.61;68.29
48216;BME280;34005;48.844;10.098;2023-05-03T07:54:05;97485.28;;;11.65;68.43
48216;BME280;34005;48.844;10.098;2023-05-03T07:56:33;97481.84;;;11.72;68.41
48216;BME280;34005;48.844;10.098;2023-05-03T07:59:02;97485.56;;;11.78;68.43
48216;BME280;34005;48.844;10.098;2023-05-03T08:01:35;97480.00;;;11.81;67.77
48216;BME280;34005;48.844;10.098;2023-05-03T08:04:03;97488.00;;;11.80;67.94
48216;BME280;34005;48.844;10.098;2023-05-03T08:06:32;97483.13;;;11.77;67.97
48216;BME280;34005;48.844;10.098;2023-05-03T08:09:01;97488.50;;;11.83;67.55
48216;BME280;34005;48.844;10.098;2023-05-03T08:11:30;97481.63;;;11.82;67.50
48216;BME280;34005;48.844;10.098;2023-05-03T08:13:57;97486.22;;;11.80;67.85
48216;BME280;34005;48.844;10.098;2023-05-03T08:16:26;97485.69;;;11.85;67.92
48216;BME280;34005;48.844;10.098;2023-05-03T08:18:54;97482.13;;;11.94;68.67
48216;BME280;34005;48.844;10.098;2023-05-03T08:21:22;97481.56;;;12.07;68.19
48216;BME280;34005;48.844;10.098;2023-05-03T08:23:51;97481.88;;;12.20;67.59
48216;BME280;34005;48.844;10.098;2023-05-03T08:26:19;97479.84;;;12.30;67.00
48216;BME280;34005;48.844;10.098;2023-05-03T08:28:49;97486.50;;;12.41;66.47
48216;BME280;34005;48.844;10.098;2023-05-03T08:31:17;97485.31;;;12.52;66.33
48216;BME280;34005;48.844;10.098;2023-05-03T08:33:46;97487.47;;;12.71;65.84
48216;BME280;34005;48.844;10.098;2023-05-03T08:36:13;97482.59;;;12.91;65.40
48216;BME280;34005;48.844;10.098;2023-05-03T08:38:41;97489.34;;;13.09;64.70
48216;BME280;34005;48.844;10.098;2023-05-03T08:41:16;97485.78;;;13.25;64.31
48216;BME280;34005;48.844;10.098;2023-05-03T08:43:50;97488.72;;;13.30;63.67
48216;BME280;34005;48.844;10.098;2023-05-03T08:46:19;97496.22;;;13.33;65.10
48216;BME280;34005;48.844;10.098;2023-05-03T08:48:50;97485.84;;;13.39;63.38
48216;BME280;34005;48.844;10.098;2023-05-03T08:51:19;97488.94;;;13.43;64.18
48216;BME280;34005;48.844;10.098;2023-05-03T08:53:48;97493.03;;;13.60;65.69
48216;BME280;34005;48.844;10.098;2023-05-03T08:56:32;97492.94;;;13.84;64.20
48216;BME280;34005;48.844;10.098;2023-05-03T08:59:00;97492.41;;;14.03;63.14
48216;BME280;34005;48.844;10.098;2023-05-03T09:01:34;97488.97;;;14.17;63.32
48216;BME280;34005;48.844;10.098;2023-05-03T09:04:04;97491.22;;;14.35;62.74
48216;BME280;34005;48.844;10.098;2023-05-03T09:06:33;97496.63;;;14.49;61.26
48216;BME280;34005;48.844;10.098;2023-05-03T09:09:03;97496.72;;;14.55;60.27
48216;BME280;34005;48.844;10.098;2023-05-03T09:11:33;97494.81;;;14.64;60.28
48216;BME280;34005;48.844;10.098;2023-05-03T09:14:08;97495.75;;;14.78;59.60
48216;BME280;34005;48.844;10.098;2023-05-03T09:16:37;97500.31;;;14.91;60.96
48216;BME280;34005;48.844;10.098;2023-05-03T09:19:07;97492.72;;;14.96;60.17
48216;BME280;34005;48.844;10.098;2023-05-03T09:21:37;97505.72;;;15.04;60.13
48216;BME280;34005;48.844;10.098;2023-05-03T09:24:11;97498.44;;;15.06;58.27
48216;BME280;34005;48.844;10.098;2023-05-03T09:26:39;97501.47;;;15.03;59.02
48216;BME280;34005;48.844;10.098;2023-05-03T09:29:08;97497.81;;;15.04;58.86
48216;BME280;34005;48.844;10.098;2023-05-03T09:31:36;97502.09;;;15.05;58.39
48216;BME280;34005;48.844;10.098;2023-05-03T09:34:23;97495.25;;;15.11;59.10
48216;BME280;34005;48.844;10.098;2023-05-03T09:36:50;97493.53;;;15.18;58.81
48216;BME280;34005;48.844;10.098;2023-05-03T09:39:18;97491.56;;;15.27;58.29
48216;BME280;34005;48.844;10.098;2023-05-03T09:41:46;97493.06;;;15.36;58.35
48216;BME280;34005;48.844;10.098;2023-05-03T09:44:16;97493.16;;;15.49;58.11
48216;BME280;34005;48.844;10.098;2023-05-03T09:47:02;97493.06;;;15.64;57.28
48216;BME280;34005;48.844;10.098;2023-05-03T09:49:31;97497.56;;;15.70;56.55
48216;BME280;34005;48.844;10.098;2023-05-03T09:52:00;97494.38;;;15.75;56.62
48216;BME280;34005;48.844;10.098;2023-05-03T09:54:28;97498.06;;;15.80;56.84
48216;BME280;34005;48.844;10.098;2023-05-03T09:56:57;97496.34;;;15.94;57.75
48216;BME280;34005;48.844;10.098;2023-05-03T09:59:27;97491.91;;;16.01;55.44
48216;BME280;34005;48.844;10.098;2023-05-03T10:01:56;97499.19;;;15.99;55.52
48216;BME280;34005;48.844;10.098;2023-05-03T10:04:26;97495.94;;;15.97;55.61
48216;BME280;34005;48.844;10.098;2023-05-03T10:06:58;97487.81;;;15.92;54.97
48216;BME280;34005;48.844;10.098;2023-05-03T10:09:30;97484.13;;;15.86;54.77
48216;BME280;34005;48.844;10.098;2023-05-03T10:11:59;97486.94;;;15.85;54.80
48216;BME280;34005;48.844;10.098;2023-05-03T10:14:31;97478.69;;;15.88;55.29
48216;BME280;34005;48.844;10.098;2023-05-03T10:17:01;97478.69;;;15.88;55.72
48216;BME280;34005;48.844;10.098;2023-05-03T10:19:33;97477.03;;;15.87;55.18
48216;BME280;34005;48.844;10.098;2023-05-03T10:22:04;97472.84;;;15.93;55.11
48216;BME280;34005;48.844;10.098;2023-05-03T10:24:33;97469.63;;;15.97;55.35
48216;BME280;34005;48.844;10.098;2023-05-03T10:27:01;97467.22;;;16.02;55.33
48216;BME280;34005;48.844;10.098;2023-05-03T10:29:51;97463.59;;;16.03;54.09
48216;BME280;34005;48.844;10.098;2023-05-03T10:32:30;97459.91;;;15.98;54.43
48216;BME280;34005;48.844;10.098;2023-05-03T10:35:03;97457.69;;;16.01;54.39
48216;BME280;34005;48.844;10.098;2023-05-03T10:37:33;97452.63;;;16.00;53.18
48216;BME280;34005;48.844;10.098;2023-05-03T10:40:08;97451.16;;;15.91;53.73
48216;BME280;34005;48.844;10.098;2023-05-03T10:42:37;97445.94;;;15.97;53.51
48216;BME280;34005;48.844;10.098;2023-05-03T10:45:07;97449.63;;;16.03;53.51
48216;BME280;34005;48.844;10.098;2023-05-03T10:47:37;97448.81;;;16.09;53.71
48216;BME280;34005;48.844;10.098;2023-05-03T10:50:25;97440.56;;;16.19;53.94
48216;BME280;34005;48.844;10.098;2023-05-03T10:52:54;97447.72;;;16.32;53.40
48216;BME280;34005;48.844;10.098;2023-05-03T10:55:22;97453.22;;;16.43;53.22
48216;BME280;34005;48.844;10.098;2023-05-03T10:57:53;97447.59;;;16.60;53.76
48216;BME280;34005;48.844;10.098;2023-05-03T11:00:28;97438.13;;;16.85;55.31
48216;BME280;34005;48.844;10.098;2023-05-03T11:03:09;97443.44;;;17.12;52.03
48216;BME280;34005;48.844;10.098;2023-05-03T11:05:38;97439.56;;;17.28;52.00
48216;BME280;34005;48.844;10.098;2023-05-03T11:08:09;97441.19;;;17.36;50.57
48216;BME280;34005;48.844;10.098;2023-05-03T11:10:37;97425.97;;;17.38;50.67
48216;BME280;34005;48.844;10.098;2023-05-03T11:13:05;97431.47;;;17.36;50.37
48216;BME280;34005;48.844;10.098;2023-05-03T11:15:33;97431.84;;;17.40;51.10
48216;BME280;34005;48.844;10.098;2023-05-03T11:18:01;97443.59;;;17.50;50.49
48216;BME280;34005;48.844;10.098;2023-05-03T11:20:29;97429.41;;;17.52;49.39
48216;BME280;34005;48.844;10.098;2023-05-03T11:22:56;97432.25;;;17.50;50.93
48216;BME280;34005;48.844;10.098;2023-05-03T11:25:25;97428.59;;;17.51;49.80
48216;BME280;34005;48.844;10.098;2023-05-03T11:27:53;97429.41;;;17.52;48.84
48216;BME280;34005;48.844;10.098;2023-05-03T11:30:21;97420.47;;;17.46;48.54
48216;BME280;34005;48.844;10.098;2023-05-03T11:32:49;97418.44;;;17.48;48.78
48216;BME280;34005;48.844;10.098;2023-05-03T11:35:16;97420.91;;;17.49;48.50
48216;BME280;34005;48.844;10.098;2023-05-03T11:37:45;97421.69;;;17.50;48.72
48216;BME280;34005;48.844;10.098;2023-05-03T11:40:14;97429.00;;;17.48;47.66
48216;BME280;34005;48.844;10.098;2023-05-03T11:42:51;97424.75;;;17.40;46.65
48216;BME280;34005;48.844;10.098;2023-05-03T11:45:20;97421.31;;;17.33;46.76
48216;BME280;34005;48.844;10.098;2023-05-03T11:47:49;97420.31;;;17.27;46.72
48216;BME280;34005;48.844;10.098;2023-05-03T11:50:17;97417.25;;;17.24;46.28
48216;BME280;34005;48.844;10.098;2023-05-03T11:52:44;97420.09;;;17.22;46.37
48216;BME280;34005;48.844;10.098;2023-05-03T11:55:12;97416.03;;;17.26;46.04
48216;BME280;34005;48.844;10.098;2023-05-03T11:57:40;97405.91;;;17.30;46.04
48216;BME280;34005;48.844;10.098;2023-05-03T12:00:11;97405.91;;;17.37;46.13
48216;BME280;34005;48.844;10.098;2023-05-03T12:02:42;97407.50;;;17.44;46.48
48216;BME280;34005;48.844;10.098;2023-05-03T12:05:11;97415.41;;;17.51;45.98
48216;BME280;34005;48.844;10.098;2023-05-03T12:07:39;97404.66;;;17.53;45.71
48216;BME280;34005;48.844;10.098;2023-05-03T12:10:13;97400.78;;;17.55;44.83
48216;BME280;34005;48.844;10.098;2023-05-03T12:12:53;97397.75;;;17.58;45.11
48216;BME280;34005;48.844;10.098;2023-05-03T12:15:29;97405.25;;;17.61;45.88
48216;BME280;34005;48.844;10.098;2023-05-03T12:18:00;97406.03;;;17.68;45.21
48216;BME280;34005;48.844;10.098;2023-05-03T12:20:30;97398.28;;;17.80;45.49
48216;BME280;34005;48.844;10.098;2023-05-03T12:23:02;97382.25;;;17.95;45.85
48216;BME280;34005;48.844;10.098;2023-05-03T12:25:31;97384.81;;;18.08;46.41
48216;BME280;34005;48.844;10.098;2023-05-03T12:28:02;97384.97;;;18.14;46.70
48216;BME280;34005;48.844;10.098;2023-05-03T12:30:34;97380.31;;;18.16;46.04
48216;BME280;34005;48.844;10.098;2023-05-03T12:33:06;97372.78;;;18.12;46.49
48216;BME280;34005;48.844;10.098;2023-05-03T12:35:36;97373.63;;;18.13;45.96
48216;BME280;34005;48.844;10.098;2023-05-03T12:38:06;97370.38;;;18.11;44.67
48216;BME280;34005;48.844;10.098;2023-05-03T12:40:36;97372.81;;;18.06;43.59
48216;BME280;34005;48.844;10.098;2023-05-03T12:43:05;97370.19;;;18.06;44.98
48216;BME280;34005;48.844;10.098;2023-05-03T12:45:34;97368.97;;;18.08;43.83
48216;BME280;34005;48.844;10.098;2023-05-03T12:48:06;97372.03;;;18.05;43.71
48216;BME280;34005;48.844;10.098;2023-05-03T12:50:34;97365.34;;;18.03;44.60
48216;BME280;34005;48.844;10.098;2023-05-03T12:53:04;97362.25;;;18.06;44.24
48216;BME280;34005;48.844;10.098;2023-05-03T12:55:37;97357.81;;;18.06;43.63
48216;BME280;34005;48.844;10.098;2023-05-03T12:58:09;97357.41;;;18.03;43.34
48216;BME280;34005;48.844;10.098;2023-05-03T13:00:41;97357.25;;;17.98;42.79
48216;BME280;34005;48.844;10.098;2023-05-03T13:03:29;97345.69;;;17.92;43.08
48216;BME280;34005;48.844;10.098;2023-05-03T13:05:59;97347.13;;;17.88;42.84